createdAt,value
2022-08-23T00:00:26.588Z,101516.06
2022-08-23T00:02:56.557Z,101514.34
2022-08-23T00:05:25.130Z,101519.72
2022-08-23T00:07:53.611Z,101520.66
2022-08-23T00:10:21.847Z,101502.91
2022-08-23T00:12:50.460Z,101513.56
2022-08-23T00:15:20.871Z,101510.09
2022-08-23T00:17:49.288Z,101504.81
2022-08-23T00:20:20.395Z,101506.63
2022-08-23T00:22:48.770Z,101509.31
2022-08-23T00:25:17.532Z,101505.78
2022-08-23T00:27:45.876Z,101508.47
2022-08-23T00:30:15.343Z,101506.75
2022-08-23T00:32:44.140Z,101500.56
2022-08-23T00:35:14.320Z,101504.13
2022-08-23T00:38:31.998Z,101496.19
2022-08-23T00:40:51.906Z,101498.88
2022-08-23T00:43:47.919Z,101510.44
2022-08-23T00:46:49.921Z,101502.50
2022-08-23T00:49:19.746Z,101505.22
2022-08-23T00:52:08.356Z,101506.13
2022-08-23T00:54:39.658Z,101499.97
2022-08-23T00:57:15.760Z,101507.09
2022-08-23T00:59:44.034Z,101505.34
2022-08-23T01:02:14.119Z,101504.47
2022-08-23T01:04:47.087Z,101496.56
2022-08-23T01:07:27.753Z,101509.88
2022-08-23T01:09:58.061Z,101503.69
2022-08-23T01:12:36.568Z,101502.78
2022-08-23T01:15:19.028Z,101495.72
2022-08-23T01:18:05.682Z,101488.59
2022-08-23T01:20:52.485Z,101486.81
2022-08-23T01:23:39.955Z,101488.63
2022-08-23T01:26:10.820Z,101495.75
2022-08-23T01:28:40.994Z,101491.28
2022-08-23T01:31:16.410Z,101487.75
2022-08-23T01:33:49.753Z,101493.16
2022-08-23T01:36:19.973Z,101494.06
2022-08-23T01:38:50.829Z,101492.31
2022-08-23T01:41:19.528Z,101489.69
2022-08-23T01:43:48.616Z,101491.47
2022-08-23T01:46:22.267Z,101499.47
2022-08-23T01:48:52.210Z,101505.69
2022-08-23T01:51:22.166Z,101496.88
2022-08-23T01:53:51.549Z,101496.88
2022-08-23T01:56:38.022Z,101494.22
2022-08-23T01:59:09.669Z,101496.88
2022-08-23T02:01:43.290Z,101491.56
2022-08-23T02:04:12.091Z,101495.97
2022-08-23T02:06:40.535Z,101502.22
2022-08-23T02:09:17.553Z,101503.13
2022-08-23T02:11:48.508Z,101504.91
2022-08-23T02:14:20.745Z,101505.84
2022-08-23T02:17:03.822Z,101508.50
2022-08-23T02:19:35.085Z,101504.09
2022-08-23T02:22:06.672Z,101508.56
2022-08-23T02:24:39.646Z,101497.94
2022-08-23T02:27:09.541Z,101489.97
2022-08-23T02:29:45.327Z,101495.34
2022-08-23T02:32:16.292Z,101491.81
2022-08-23T02:34:57.800Z,101495.38
2022-08-23T02:37:34.369Z,101498.03
2022-08-23T02:40:05.543Z,101494.53
2022-08-23T02:42:34.299Z,101498.91
2022-08-23T02:45:04.573Z,101497.16
2022-08-23T02:47:36.934Z,101500.66
2022-08-23T02:50:20.341Z,101510.38
2022-08-23T02:52:48.825Z,101503.25
2022-08-23T02:55:17.397Z,101492.53
2022-08-23T02:57:46.002Z,101499.63
2022-08-23T03:00:17.694Z,101496.03
2022-08-23T03:02:46.635Z,101488.91
2022-08-23T03:05:16.113Z,101494.22
2022-08-23T03:07:45.100Z,101486.22
2022-08-23T03:10:13.915Z,101488.91
2022-08-23T03:12:51.582Z,101481.78
2022-08-23T03:15:20.782Z,101487.97
2022-08-23T03:17:50.039Z,101488.91
2022-08-23T03:20:19.653Z,101491.59
2022-08-23T03:22:54.776Z,101493.41
2022-08-23T03:25:26.629Z,101495.19
2022-08-23T03:28:07.413Z,101488.13
2022-08-23T03:30:40.293Z,101492.59
2022-08-23T03:33:09.873Z,101488.16
2022-08-23T03:35:38.364Z,101497.06
2022-08-23T03:38:08.057Z,101497.09
2022-08-23T03:40:37.197Z,101494.50
2022-08-23T03:43:08.138Z,101493.66
2022-08-23T03:45:37.919Z,101493.66
2022-08-23T03:48:06.435Z,101498.13
2022-08-23T03:50:36.417Z,101503.47
2022-08-23T03:53:04.842Z,101494.63
2022-08-23T03:55:33.339Z,101499.94
2022-08-23T03:58:11.392Z,101493.78
2022-08-23T04:00:39.830Z,101504.47
2022-08-23T04:03:08.235Z,101508.94
2022-08-23T04:05:51.445Z,101500.97
2022-08-23T04:08:33.682Z,101505.44
2022-08-23T04:11:05.165Z,101508.94
2022-08-23T04:13:35.326Z,101508.06
2022-08-23T04:16:05.834Z,101509.81
2022-08-23T04:18:35.522Z,101514.25
2022-08-23T04:21:10.743Z,101505.34
2022-08-23T04:23:39.988Z,101506.19
2022-08-23T04:26:09.818Z,101510.63
2022-08-23T04:28:39.329Z,101512.41
2022-08-23T04:31:08.202Z,101515.06
2022-08-23T04:33:40.189Z,101521.28
2022-08-23T04:36:11.375Z,101517.75
2022-08-23T04:38:39.859Z,101515.09
2022-08-23T04:41:39.489Z,101515.09
2022-08-23T04:44:08.166Z,101515.97
2022-08-23T04:46:37.624Z,101515.97
2022-08-23T04:49:06.093Z,101521.25
2022-08-23T04:51:34.714Z,101523.91
2022-08-23T04:54:03.448Z,101523.00
2022-08-23T04:56:50.877Z,101520.34
2022-08-23T04:59:21.445Z,101524.75
2022-08-23T05:01:51.352Z,101530.06
2022-08-23T05:04:20.710Z,101524.72
2022-08-23T05:06:49.951Z,101524.72
2022-08-23T05:09:20.660Z,101530.91
2022-08-23T05:11:50.089Z,101529.97
2022-08-23T05:14:20.536Z,101537.06
2022-08-23T05:16:49.086Z,101543.25
2022-08-23T05:19:18.039Z,101532.53
2022-08-23T05:21:48.534Z,101538.72
2022-08-23T05:24:18.925Z,101537.81
2022-08-23T05:26:49.030Z,101538.66
2022-08-23T05:29:17.582Z,101539.50
2022-08-23T05:31:50.345Z,101550.97
2022-08-23T05:34:23.324Z,101552.69
2022-08-23T05:36:55.897Z,101554.41
2022-08-23T05:39:36.122Z,101562.31
2022-08-23T05:42:09.555Z,101557.84
2022-08-23T05:44:38.306Z,101555.09
2022-08-23T05:47:15.611Z,101566.50
2022-08-23T05:50:04.626Z,101566.34
2022-08-23T05:52:36.436Z,101565.38
2022-08-23T05:55:06.627Z,101567.91
2022-08-23T05:57:50.008Z,101571.31
2022-08-23T06:00:18.438Z,101572.94
2022-08-23T06:02:55.605Z,101571.88
2022-08-23T06:05:24.462Z,101578.63
2022-08-23T06:07:53.575Z,101575.50
2022-08-23T06:10:24.448Z,101576.72
2022-08-23T06:13:04.166Z,101583.53
2022-08-23T06:15:33.071Z,101582.44
2022-08-23T06:18:02.173Z,101587.63
2022-08-23T06:20:33.168Z,101582.22
2022-08-23T06:23:08.029Z,101591.00
2022-08-23T06:25:38.270Z,101590.94
2022-08-23T06:28:13.579Z,101586.44
2022-08-23T06:30:43.958Z,101581.09
2022-08-23T06:33:24.352Z,101581.06
2022-08-23T06:36:26.698Z,101583.63
2022-08-23T06:39:17.003Z,101579.94
2022-08-23T06:42:38.065Z,101570.06
2022-08-23T06:45:06.354Z,101578.00
2022-08-23T06:47:44.230Z,101575.25
2022-08-23T06:50:12.604Z,101576.88
2022-08-23T06:53:22.428Z,101575.72
2022-08-23T06:56:17.372Z,101574.56
2022-08-23T06:59:06.372Z,101567.06
2022-08-23T07:02:05.286Z,101579.84
2022-08-23T07:04:55.709Z,101572.88
2022-08-23T07:07:44.227Z,101574.31
2022-08-23T07:10:15.770Z,101565.94
2022-08-23T07:12:45.194Z,101574.50
2022-08-23T07:15:16.176Z,101578.66
2022-08-23T07:17:46.647Z,101582.00
2022-08-23T07:20:15.626Z,101584.44
2022-08-23T07:22:45.994Z,101588.63
2022-08-23T07:25:15.041Z,101585.75
2022-08-23T07:27:48.557Z,101595.38
2022-08-23T07:30:20.666Z,101598.72
2022-08-23T07:32:49.987Z,101594.16
2022-08-23T07:35:28.418Z,101589.47
2022-08-23T07:37:59.931Z,101602.78
2022-08-23T07:40:38.775Z,101599.91
2022-08-23T07:43:08.288Z,101598.84
2022-08-23T07:45:41.011Z,101601.44
2022-08-23T07:48:18.040Z,101601.22
2022-08-23T07:51:14.285Z,101602.03
2022-08-23T07:53:45.924Z,101601.97
2022-08-23T07:56:18.491Z,101600.16
2022-08-23T07:59:19.287Z,101602.75
2022-08-23T08:02:07.117Z,101612.38
2022-08-23T08:04:37.586Z,101604.91
2022-08-23T08:07:21.723Z,101610.94
2022-08-23T08:10:00.166Z,101623.19
2022-08-23T08:12:32.084Z,101626.50
2022-08-23T08:15:06.741Z,101619.09
2022-08-23T08:17:40.280Z,101625.94
2022-08-23T08:20:11.513Z,101619.44
2022-08-23T08:22:49.941Z,101620.84
2022-08-23T08:25:43.998Z,101620.44
2022-08-23T08:28:16.091Z,101628.19
2022-08-23T08:30:44.937Z,101636.13
2022-08-23T08:33:14.967Z,101628.06
2022-08-23T08:35:57.795Z,101625.31
2022-08-23T08:38:30.757Z,101627.78
2022-08-23T08:41:15.518Z,101617.69
2022-08-23T08:44:08.350Z,101628.03
2022-08-23T08:46:53.289Z,101617.75
2022-08-23T08:49:32.708Z,101616.28
2022-08-23T08:52:13.627Z,101619.38
2022-08-23T08:54:47.958Z,101615.47
2022-08-23T08:57:25.412Z,101623.75
2022-08-23T09:00:05.302Z,101621.53
2022-08-23T09:02:37.736Z,101620.09
2022-08-23T09:05:15.532Z,101616.97
2022-08-23T09:08:09.527Z,101622.91
2022-08-23T09:11:06.555Z,101613.50
2022-08-23T09:13:46.344Z,101617.75
2022-08-23T09:16:45.532Z,101613.31
2022-08-23T09:19:14.074Z,101613.84
2022-08-23T09:21:56.660Z,101620.69
2022-08-23T09:24:27.499Z,101617.03
2022-08-23T09:27:04.132Z,101611.78
2022-08-23T09:29:34.987Z,101617.94
2022-08-23T09:32:26.810Z,101616.88
2022-08-23T09:35:11.434Z,101616.66
2022-08-23T09:38:04.723Z,101615.38
2022-08-23T09:40:45.128Z,101619.97
2022-08-23T09:43:23.837Z,101611.97
2022-08-23T09:45:52.231Z,101616.72
2022-08-23T09:48:34.990Z,101615.25
2022-08-23T09:51:25.159Z,101618.75
2022-08-23T09:54:23.438Z,101618.41
2022-08-23T09:56:57.757Z,101603.47
2022-08-23T09:59:27.443Z,101606.66
2022-08-23T10:02:03.226Z,101603.88
2022-08-23T10:04:57.065Z,101603.75
2022-08-23T10:07:32.882Z,101603.66
2022-08-23T10:10:26.374Z,101592.06
2022-08-23T10:13:00.269Z,101593.09
2022-08-23T10:15:40.432Z,101598.69
2022-08-23T10:18:25.013Z,101593.22
2022-08-23T10:21:04.963Z,101587.69
2022-08-23T10:24:10.921Z,101595.41
2022-08-23T10:26:50.802Z,101588.78
2022-08-23T10:29:37.935Z,101590.13
2022-08-23T10:32:35.778Z,101596.00
2022-08-23T10:35:24.792Z,101592.75
2022-08-23T10:38:24.741Z,101585.94
2022-08-23T10:41:31.179Z,101584.50
2022-08-23T10:44:20.525Z,101588.00
2022-08-23T10:46:56.645Z,101587.13
2022-08-23T10:49:28.671Z,101590.56
2022-08-23T10:51:58.055Z,101583.97
2022-08-23T10:54:47.209Z,101587.13
2022-08-23T10:57:21.744Z,101590.47
2022-08-23T10:59:52.756Z,101582.00
2022-08-23T11:02:34.403Z,101577.94
2022-08-23T11:05:27.269Z,101581.09
2022-08-23T11:08:11.529Z,101579.03
2022-08-23T11:10:55.894Z,101582.59
2022-08-23T11:13:31.958Z,101570.91
2022-08-23T11:16:07.078Z,101580.41
2022-08-23T11:18:38.165Z,101576.78
2022-08-23T11:21:11.985Z,101578.19
2022-08-23T11:24:15.649Z,101575.22
2022-08-23T11:26:45.286Z,101575.06
2022-08-23T11:29:23.453Z,101572.09
2022-08-23T11:32:42.943Z,101574.22
2022-08-23T11:35:37.041Z,101578.19
2022-08-23T11:38:10.642Z,101579.50
2022-08-23T11:40:50.675Z,101578.03
2022-08-23T11:43:45.389Z,101577.50
2022-08-23T11:46:23.267Z,101575.06
2022-08-23T11:49:29.682Z,101568.25
2022-08-23T11:52:13.400Z,101581.19
2022-08-23T11:55:06.694Z,101580.84
2022-08-23T11:57:59.472Z,101576.97
2022-08-23T12:01:06.434Z,101576.72
2022-08-23T12:03:54.972Z,101579.22
2022-08-23T12:06:38.996Z,101570.94
2022-08-23T12:09:32.492Z,101570.72
2022-08-23T12:12:02.389Z,101560.59
2022-08-23T12:14:30.629Z,101575.13
2022-08-23T12:17:31.371Z,101572.19
2022-08-23T12:20:16.351Z,101567.75
2022-08-23T12:23:12.867Z,101581.09
2022-08-23T12:25:42.848Z,101574.66
2022-08-23T12:28:42.806Z,101567.94
2022-08-23T12:31:43.388Z,101575.66
2022-08-23T12:34:16.680Z,101570.25
2022-08-23T12:37:28.675Z,101557.31
2022-08-23T12:39:59.661Z,101570.56
2022-08-23T12:42:39.649Z,101567.31
2022-08-23T12:45:14.866Z,101566.91
2022-08-23T12:47:54.654Z,101569.16
2022-08-23T12:50:44.517Z,101574.25
2022-08-23T12:53:16.349Z,101562.28
2022-08-23T12:55:49.697Z,101566.88
2022-08-23T12:58:33.147Z,101567.69
2022-08-23T13:01:05.959Z,101568.25
2022-08-23T13:03:46.449Z,101565.38
2022-08-23T13:06:21.715Z,101573.31
2022-08-23T13:08:56.900Z,101556.16
2022-08-23T13:11:32.493Z,101559.16
2022-08-23T13:14:01.284Z,101557.84
2022-08-23T13:16:44.486Z,101556.38
2022-08-23T13:19:27.926Z,101568.38
2022-08-23T13:22:18.988Z,101567.69
2022-08-23T13:25:01.353Z,101563.06
2022-08-23T13:27:45.425Z,101573.72
2022-08-23T13:30:14.045Z,101570.84
2022-08-23T13:32:49.807Z,101567.16
2022-08-23T13:35:36.319Z,101565.97
2022-08-23T13:38:07.774Z,101567.41
2022-08-23T13:40:51.343Z,101555.13
2022-08-23T13:43:26.070Z,101554.81
2022-08-23T13:45:57.014Z,101548.16
2022-08-23T13:48:32.731Z,101551.44
2022-08-23T13:51:32.686Z,101559.00
2022-08-23T13:54:07.995Z,101557.84
2022-08-23T13:56:53.280Z,101558.41
2022-08-23T13:59:25.280Z,101552.63
2022-08-23T14:02:02.833Z,101543.13
2022-08-23T14:04:31.499Z,101548.03
2022-08-23T14:07:00.009Z,101559.34
2022-08-23T14:09:28.487Z,101555.94
2022-08-23T14:11:59.517Z,101544.53
2022-08-23T14:14:31.919Z,101555.38
2022-08-23T14:17:02.815Z,101559.81
2022-08-23T14:22:22.792Z,101552.50
2022-08-23T14:24:51.077Z,101544.78
2022-08-23T14:27:19.724Z,101554.66
2022-08-23T14:29:48.208Z,101543.91
2022-08-23T14:32:16.595Z,101547.56
2022-08-23T14:34:45.041Z,101554.22
2022-08-23T14:38:00.568Z,101549.28
2022-08-23T14:40:02.084Z,101545.22
2022-08-23T14:42:31.782Z,101546.56
2022-08-23T14:45:03.061Z,101547.69
2022-08-23T14:47:36.576Z,101544.38
2022-08-23T14:50:09.436Z,101530.22
2022-08-23T14:52:40.766Z,101539.44
2022-08-23T14:55:09.916Z,101551.03
2022-08-23T14:57:38.943Z,101540.19
2022-08-23T15:00:13.726Z,101536.63
2022-08-23T15:02:44.605Z,101536.63
2022-08-23T15:05:14.655Z,101540.38
2022-08-23T15:07:43.862Z,101540.28
2022-08-23T15:13:20.653Z,101531.47
2022-08-23T15:15:53.612Z,101533.47
2022-08-23T15:18:22.189Z,101536.44
2022-08-23T15:20:52.361Z,101533.97
2022-08-23T15:23:21.148Z,101538.03
2022-08-23T15:25:50.127Z,101531.84
2022-08-23T15:28:21.250Z,101530.78
2022-08-23T15:30:50.600Z,101528.94
2022-08-23T15:33:30.676Z,101526.94
2022-08-23T15:36:02.254Z,101528.69
2022-08-23T15:38:32.162Z,101516.00
2022-08-23T15:41:00.783Z,101526.94
2022-08-23T15:43:34.341Z,101527.78
2022-08-23T15:46:07.998Z,101525.78
2022-08-23T15:48:43.476Z,101529.25
2022-08-23T15:51:13.007Z,101523.63
2022-08-23T15:53:41.677Z,101522.56
2022-08-23T15:56:15.443Z,101525.09
2022-08-23T15:58:44.276Z,101525.88
2022-08-23T16:01:13.191Z,101525.78
2022-08-23T16:03:44.372Z,101523.16
2022-08-23T16:06:13.723Z,101523.34
2022-08-23T16:08:45.343Z,101518.13
2022-08-23T16:11:13.698Z,101526.38
2022-08-23T16:13:45.055Z,101519.22
2022-08-23T16:16:24.051Z,101522.97
2022-08-23T16:18:54.058Z,101521.34
2022-08-23T16:21:25.220Z,101525.09
2022-08-23T16:23:55.755Z,101524.31
2022-08-23T16:26:35.357Z,101518.97
2022-08-23T16:29:08.851Z,101525.53
2022-08-23T16:31:39.916Z,101519.41
2022-08-23T16:34:12.929Z,101526.84
2022-08-23T16:36:45.422Z,101528.97
2022-08-23T16:39:15.973Z,101525.72
2022-08-23T16:41:44.341Z,101533.41
2022-08-23T16:44:12.745Z,101527.47
2022-08-23T16:46:43.767Z,101529.75
2022-08-23T16:49:18.598Z,101532.00
2022-08-23T16:51:47.930Z,101531.53
2022-08-23T16:54:18.532Z,101531.09
2022-08-23T16:56:46.898Z,101527.94
2022-08-23T16:59:15.282Z,101530.09
2022-08-23T17:01:45.059Z,101532.34
2022-08-23T17:04:14.440Z,101531.81
2022-08-23T17:06:43.630Z,101533.97
2022-08-23T17:09:13.284Z,101534.38
2022-08-23T17:11:43.365Z,101535.56
2022-08-23T17:14:12.728Z,101531.44
2022-08-23T17:16:42.293Z,101531.66
2022-08-23T17:19:12.767Z,101531.84
2022-08-23T17:21:42.941Z,101530.16
2022-08-23T17:24:11.368Z,101531.13
2022-08-23T17:26:39.744Z,101524.03
2022-08-23T17:29:09.621Z,101527.69
2022-08-23T17:31:38.754Z,101534.22
2022-08-23T17:34:07.285Z,101536.13
2022-08-23T17:36:47.983Z,101536.34
2022-08-23T17:39:19.291Z,101540.16
2022-08-23T17:41:48.051Z,101540.41
2022-08-23T17:44:20.674Z,101544.19
2022-08-23T17:46:49.958Z,101543.59
2022-08-23T17:49:19.774Z,101558.41
2022-08-23T17:51:48.416Z,101560.66
2022-08-23T17:54:17.385Z,101556.59
2022-08-23T17:56:50.369Z,101558.00
2022-08-23T17:59:19.669Z,101561.28
2022-08-23T18:01:49.296Z,101559.75
2022-08-23T18:04:18.295Z,101569.84
2022-08-23T18:06:46.761Z,101569.19
2022-08-23T18:09:15.692Z,101568.59
2022-08-23T18:11:44.400Z,101566.25
2022-08-23T18:14:13.129Z,101570.16
2022-08-23T18:16:44.084Z,101566.00
2022-08-23T18:19:14.069Z,101574.34
2022-08-23T18:21:45.418Z,101573.78
2022-08-23T18:24:13.805Z,101579.31
2022-08-23T18:27:04.473Z,101575.94
2022-08-23T18:29:35.203Z,101586.19
2022-08-23T18:32:07.134Z,101582.91
2022-08-23T18:34:37.186Z,101593.06
2022-08-23T18:37:06.008Z,101596.06
2022-08-23T18:39:34.662Z,101594.50
2022-08-23T18:42:05.386Z,101601.88
2022-08-23T18:44:33.814Z,101595.88
2022-08-23T18:47:03.484Z,101605.00
2022-08-23T18:49:33.791Z,101598.16
2022-08-23T18:52:02.811Z,101610.13
2022-08-23T18:54:34.015Z,101602.44
2022-08-23T18:57:03.884Z,101602.88
2022-08-23T18:59:32.525Z,101611.31
2022-08-23T19:02:01.563Z,101616.16
2022-08-23T19:04:30.271Z,101611.06
2022-08-23T19:06:58.602Z,101616.69
2022-08-23T19:09:27.062Z,101619.47
2022-08-23T19:11:55.396Z,101616.97
2022-08-23T19:14:24.514Z,101623.47
2022-08-23T19:16:53.378Z,101620.13
2022-08-23T19:19:22.687Z,101617.75
2022-08-23T19:21:51.226Z,101619.72
2022-08-23T19:24:19.515Z,101618.97
2022-08-23T19:26:48.886Z,101621.91
2022-08-23T19:29:20.588Z,101623.06
2022-08-23T19:31:50.394Z,101629.53
2022-08-23T19:34:20.343Z,101637.78
2022-08-23T19:36:59.108Z,101637.22
2022-08-23T19:39:29.822Z,101649.06
2022-08-23T19:41:58.637Z,101643.03
2022-08-23T19:44:28.092Z,101638.75
2022-08-23T19:46:57.707Z,101643.44
2022-08-23T19:49:26.080Z,101641.75
2022-08-23T19:51:54.662Z,101651.69
2022-08-23T19:54:23.329Z,101658.16
2022-08-23T19:56:58.014Z,101661.88
2022-08-23T19:59:39.077Z,101654.78
2022-08-23T20:02:09.735Z,101656.59
2022-08-23T20:04:38.271Z,101659.47
2022-08-23T20:07:06.692Z,101660.38
2022-08-23T20:09:35.715Z,101664.09
2022-08-23T20:12:04.821Z,101666.00
2022-08-23T20:14:33.603Z,101667.03
2022-08-23T20:17:04.485Z,101667.16
2022-08-23T20:19:35.234Z,101662.81
2022-08-23T20:22:31.410Z,101664.75
2022-08-23T20:25:00.491Z,101672.06
2022-08-23T20:27:31.084Z,101676.66
2022-08-23T20:30:01.514Z,101674.97
2022-08-23T20:32:31.201Z,101674.06
2022-08-23T20:35:00.770Z,101678.59
2022-08-23T20:37:29.680Z,101676.94
2022-08-23T20:40:01.697Z,101680.66
2022-08-23T20:42:30.190Z,101678.13
2022-08-23T20:44:59.164Z,101672.91
2022-08-23T20:47:27.631Z,101682.88
2022-08-23T20:49:55.966Z,101682.13
2022-08-23T20:52:24.748Z,101680.44
2022-08-23T20:54:53.515Z,101686.75
2022-08-23T20:57:22.125Z,101688.63
2022-08-23T20:59:50.544Z,101695.84
2022-08-23T21:02:19.170Z,101695.09
2022-08-23T21:04:47.884Z,101694.34
2022-08-23T21:07:16.301Z,101696.19
2022-08-23T21:09:45.909Z,101690.94
2022-08-23T21:12:14.405Z,101695.44
2022-08-23T21:14:42.806Z,101701.75
2022-08-23T21:17:13.300Z,101705.34
2022-08-23T21:19:44.089Z,101704.47
2022-08-23T21:22:12.443Z,101705.41
2022-08-23T21:24:40.885Z,101701.84
2022-08-23T21:27:09.954Z,101699.28
2022-08-23T21:29:38.729Z,101695.81
2022-08-23T21:32:07.536Z,101697.66
2022-08-23T21:34:36.078Z,101700.38
2022-08-23T21:37:04.649Z,101700.38
2022-08-23T21:39:33.002Z,101700.38
2022-08-23T21:42:01.750Z,101695.88
2022-08-23T21:44:30.044Z,101696.78
2022-08-23T21:46:58.436Z,101698.59
2022-08-23T21:49:27.613Z,101695.88
2022-08-23T21:51:55.927Z,101689.66
2022-08-23T21:54:24.780Z,101694.16
2022-08-23T21:56:53.297Z,101689.69
2022-08-23T21:59:23.493Z,101680.78
2022-08-23T22:01:51.890Z,101693.31
2022-08-23T22:04:20.281Z,101688.88
2022-08-23T22:06:51.959Z,101686.22
2022-08-23T22:09:25.777Z,101685.34
2022-08-23T22:12:00.391Z,101695.16
2022-08-23T22:14:31.377Z,101696.94
2022-08-23T22:17:00.586Z,101697.91
2022-08-23T22:19:29.111Z,101701.59
2022-08-23T22:21:57.513Z,101700.78
2022-08-23T22:24:26.570Z,101710.66
2022-08-23T22:26:56.725Z,101706.22
2022-08-23T22:29:25.081Z,101703.59
2022-08-23T22:31:53.756Z,101696.47
2022-08-23T22:34:22.564Z,101696.56
2022-08-23T22:36:52.242Z,101704.69
2022-08-23T22:39:22.925Z,101695.81
2022-08-23T22:41:59.131Z,101701.25
2022-08-23T22:44:28.958Z,101702.28
2022-08-23T22:46:58.714Z,101697.03
2022-08-23T22:49:27.615Z,101698.81
2022-08-23T22:51:59.499Z,101700.72
2022-08-23T22:54:27.890Z,101707.91
2022-08-23T22:56:56.182Z,101699.06
2022-08-23T22:59:33.130Z,101701.84
2022-08-23T23:02:03.388Z,101709.97
2022-08-23T23:04:33.820Z,101705.59
2022-08-23T23:07:02.701Z,101697.69
2022-08-23T23:09:31.222Z,101699.56
2022-08-23T23:11:59.665Z,101708.59
2022-08-23T23:14:27.986Z,101703.34
2022-08-23T23:16:56.373Z,101699.75
2022-08-23T23:19:45.722Z,101704.28
2022-08-23T23:22:15.013Z,101702.56
2022-08-23T23:24:45.476Z,101698.22
2022-08-23T23:27:13.630Z,101701.81
2022-08-23T23:29:42.287Z,101694.72
2022-08-23T23:32:10.729Z,101693.03
2022-08-23T23:34:39.066Z,101694.88
2022-08-23T23:37:09.058Z,101697.59
2022-08-23T23:39:37.559Z,101696.78
2022-08-23T23:42:06.077Z,101696.84
2022-08-23T23:44:34.400Z,101700.53
2022-08-23T23:47:03.518Z,101696.16
2022-08-23T23:49:33.033Z,101704.25
2022-08-23T23:52:03.648Z,101703.50
2022-08-23T23:54:33.960Z,101700.91
2022-08-23T23:57:04.078Z,101700.09
2022-08-23T23:59:33.752Z,101697.50
